Red Valley, Arizona
Current Conditions -  °F | °C
As of 12:53 AM on Saturday 25 Oct 2014 (Local Time) from KCEZ Reporting Station
Clear Clear  
Wind Chill: 31°   Ceiling: Unl
Heat Index: 35°   Visibility: 10mi
Dew Point: 27°   Wind: 5mph
Humidity: 72%   Direction: 60°ENE
Pressure: 30.33"   Gusts: NA
Location:  36.91°N, 109.1°W
Report Text: KCEZ 250653Z AUTO 06004KT 10SM CLR 02/M03 A3033 RMK AO2 SLP229 T00171028 402390000
Loading
Personal Weather Stations






























Interactive Weather Map
Tropical Storm Tracking
New forecast layout! Learn more

10-Day Weather Forecast

Advertisements
Track Severe Weather on mobile